createdAt,value
2018-09-11T00:03:24.984Z,3.60
2018-09-11T00:08:17.559Z,3.50
2018-09-11T00:13:10.219Z,3.73
2018-09-11T00:18:02.963Z,3.90
2018-09-11T00:22:55.530Z,3.90
2018-09-11T00:27:48.144Z,3.70
2018-09-11T00:32:40.777Z,4.03
2018-09-11T00:37:33.330Z,3.70
2018-09-11T00:42:25.895Z,4.00
2018-09-11T00:47:18.492Z,4.00
2018-09-11T00:52:11.099Z,4.10
2018-09-11T00:57:03.667Z,3.67
2018-09-11T01:01:56.259Z,3.60
2018-09-11T01:06:48.900Z,3.80
2018-09-11T01:11:41.503Z,3.33
2018-09-11T01:16:34.084Z,3.53
2018-09-11T01:21:26.659Z,3.30
2018-09-11T01:26:19.223Z,4.07
2018-09-11T01:31:11.772Z,3.43
2018-09-11T01:36:04.457Z,3.83
2018-09-11T01:40:57.003Z,3.73
2018-09-11T01:45:49.578Z,3.23
2018-09-11T01:50:42.170Z,3.60
2018-09-11T01:55:34.800Z,3.57
2018-09-11T02:00:27.388Z,3.60
2018-09-11T02:05:20.017Z,3.50
2018-09-11T02:10:12.991Z,3.77
2018-09-11T02:15:05.854Z,3.53
2018-09-11T02:19:58.544Z,3.73
2018-09-11T02:24:51.106Z,3.60
2018-09-11T02:29:43.687Z,4.10
2018-09-11T02:34:36.232Z,3.63
2018-09-11T02:39:28.826Z,3.50
2018-09-11T02:44:21.445Z,3.60
2018-09-11T02:49:14.042Z,3.77
2018-09-11T02:54:06.735Z,3.60
2018-09-11T02:58:59.306Z,3.43
2018-09-11T03:03:51.851Z,3.63
2018-09-11T03:08:44.437Z,3.80
2018-09-11T03:13:37.175Z,3.77
2018-09-11T03:18:29.822Z,4.17
2018-09-11T03:23:22.359Z,3.47
2018-09-11T03:28:15.013Z,4.03
2018-09-11T03:33:07.919Z,4.20
2018-09-11T03:38:00.586Z,4.40
2018-09-11T03:42:53.167Z,4.03
2018-09-11T03:47:45.686Z,4.50
2018-09-11T03:52:38.432Z,3.77
2018-09-11T03:57:31.016Z,4.23
2018-09-11T04:02:23.570Z,4.30
2018-09-11T04:07:16.194Z,4.47
2018-09-11T04:12:08.802Z,4.40
2018-09-11T04:17:01.361Z,4.47
2018-09-11T04:21:53.887Z,4.00
2018-09-11T04:26:47.369Z,4.43
2018-09-11T04:31:40.065Z,4.13
2018-09-11T04:36:32.731Z,4.40
2018-09-11T04:41:25.323Z,4.20
2018-09-11T04:46:18.087Z,4.17
2018-09-11T04:51:10.771Z,4.50
2018-09-11T04:56:03.573Z,4.17
2018-09-11T05:00:56.226Z,4.43
2018-09-11T05:05:48.935Z,5.17
2018-09-11T05:10:41.570Z,4.70
2018-09-11T05:15:34.278Z,4.10
2018-09-11T05:20:26.797Z,5.17
2018-09-11T05:25:19.361Z,5.47
2018-09-11T05:30:11.874Z,5.83
2018-09-11T05:35:04.453Z,6.00
2018-09-11T05:39:57.031Z,5.27
2018-09-11T05:44:49.746Z,5.57
2018-09-11T05:49:42.357Z,4.77
2018-09-11T05:54:35.010Z,5.17
2018-09-11T05:59:27.568Z,5.63
2018-09-11T06:04:20.243Z,4.70
2018-09-11T06:09:13.349Z,4.60
2018-09-11T06:14:06.505Z,5.23
2018-09-11T06:18:59.228Z,4.90
2018-09-11T06:23:51.834Z,4.70
2018-09-11T06:28:44.438Z,4.93
2018-09-11T06:33:37.027Z,4.90
2018-09-11T06:38:29.639Z,4.60
2018-09-11T06:43:22.286Z,4.50
2018-09-11T06:48:14.916Z,4.50
2018-09-11T06:53:07.516Z,4.67
2018-09-11T06:58:00.186Z,4.23
2018-09-11T07:02:52.772Z,4.37
2018-09-11T07:07:45.455Z,3.43
2018-09-11T07:12:38.211Z,4.00
2018-09-11T07:17:30.746Z,4.10
2018-09-11T07:22:23.411Z,4.63
2018-09-11T07:27:16.019Z,4.00
2018-09-11T07:32:08.644Z,4.60
2018-09-11T07:37:01.270Z,4.90
2018-09-11T07:41:53.895Z,5.10
2018-09-11T07:46:46.439Z,4.60
2018-09-11T07:51:39.153Z,4.53
2018-09-11T07:56:31.683Z,5.37
2018-09-11T08:01:24.233Z,4.73
2018-09-11T08:06:16.823Z,5.27
2018-09-11T08:11:09.486Z,6.00
2018-09-11T08:16:02.128Z,5.20
2018-09-11T08:20:54.833Z,5.37
2018-09-11T08:25:47.474Z,5.33
2018-09-11T08:30:40.088Z,5.93
2018-09-11T08:35:32.825Z,5.30
2018-09-11T08:40:25.450Z,5.77
2018-09-11T08:45:18.177Z,5.67
2018-09-11T08:50:10.839Z,6.03
2018-09-11T08:55:03.559Z,5.40
2018-09-11T08:59:56.131Z,5.10
2018-09-11T09:04:48.816Z,5.10
2018-09-11T09:09:41.387Z,5.03
2018-09-11T09:14:33.975Z,4.60
2018-09-11T09:19:26.582Z,5.27
2018-09-11T09:24:19.162Z,5.30
2018-09-11T09:29:11.813Z,5.30
2018-09-11T09:34:04.429Z,4.70
2018-09-11T09:38:57.017Z,4.40
2018-09-11T09:43:49.614Z,4.03
2018-09-11T09:48:42.329Z,4.40
2018-09-11T09:53:34.920Z,4.53
2018-09-11T09:58:27.549Z,4.07
2018-09-11T10:03:20.456Z,3.70
2018-09-11T10:08:13.023Z,4.40
2018-09-11T10:13:05.684Z,4.00
2018-09-11T10:17:58.287Z,3.70
2018-09-11T10:22:50.896Z,3.83
2018-09-11T10:27:43.603Z,3.90
2018-09-11T10:32:36.267Z,4.33
2018-09-11T10:37:29.071Z,4.20
2018-09-11T10:42:22.646Z,3.67
2018-09-11T10:47:15.334Z,3.77
2018-09-11T10:52:08.353Z,3.27
2018-09-11T10:57:00.971Z,3.50
2018-09-11T11:01:53.786Z,3.93
2018-09-11T11:06:46.432Z,3.30
2018-09-11T11:11:39.533Z,3.57
2018-09-11T11:16:32.163Z,3.80
2018-09-11T11:21:24.729Z,4.07
2018-09-11T11:26:17.327Z,3.60
2018-09-11T11:31:09.866Z,3.07
2018-09-11T11:36:02.501Z,3.77
2018-09-11T11:40:55.097Z,3.50
2018-09-11T11:45:47.892Z,3.50
2018-09-11T11:50:40.444Z,3.47
2018-09-11T11:55:33.197Z,3.23
2018-09-11T12:00:25.755Z,3.50
2018-09-11T12:05:18.371Z,3.60
2018-09-11T12:10:10.942Z,3.50
2018-09-11T12:15:04.736Z,3.30
2018-09-11T12:19:57.318Z,3.13
2018-09-11T12:24:49.946Z,3.30
2018-09-11T12:29:42.679Z,3.50
2018-09-11T12:34:35.274Z,3.20
2018-09-11T12:39:27.892Z,3.03
2018-09-11T12:44:20.554Z,3.30
2018-09-11T12:49:13.090Z,3.00
2018-09-11T12:54:05.859Z,3.27
2018-09-11T12:58:58.585Z,3.20
2018-09-11T13:03:51.234Z,2.97
2018-09-11T13:08:43.787Z,2.97
2018-09-11T13:13:36.363Z,3.13
2018-09-11T13:18:29.047Z,3.37
2018-09-11T13:23:21.833Z,2.80
2018-09-11T13:28:14.509Z,3.00
2018-09-11T13:33:07.922Z,2.73
2018-09-11T13:38:00.571Z,2.77
2018-09-11T13:42:53.270Z,2.70
2018-09-11T13:47:46.668Z,2.87
2018-09-11T13:52:39.592Z,2.57
2018-09-11T13:57:32.303Z,2.60
2018-09-11T14:02:24.938Z,2.80
2018-09-11T14:07:17.640Z,2.50
2018-09-11T14:12:10.261Z,2.20
2018-09-11T14:17:02.939Z,2.57
2018-09-11T14:21:55.605Z,2.40
2018-09-11T14:26:48.270Z,2.37
2018-09-11T14:31:40.714Z,2.50
2018-09-11T14:36:33.444Z,2.50
2018-09-11T14:41:26.149Z,2.60
2018-09-11T14:46:19.020Z,2.40
2018-09-11T14:51:11.685Z,2.20
2018-09-11T14:56:04.784Z,2.73
2018-09-11T15:00:57.583Z,2.30
2018-09-11T15:05:50.287Z,2.33
2018-09-11T15:10:42.854Z,2.50
2018-09-11T15:15:35.454Z,2.20
2018-09-11T15:20:28.046Z,2.40
2018-09-11T15:25:20.643Z,2.20
2018-09-11T15:30:13.216Z,2.67
2018-09-11T15:35:05.967Z,2.50
2018-09-11T15:39:58.619Z,2.37
2018-09-11T15:44:51.237Z,2.70
2018-09-11T15:49:43.905Z,2.50
2018-09-11T15:54:36.675Z,2.50
2018-09-11T15:59:29.199Z,2.87
2018-09-11T16:04:21.847Z,2.40
2018-09-11T16:09:14.423Z,2.40
2018-09-11T16:14:07.751Z,2.50
2018-09-11T16:19:00.370Z,2.53
2018-09-11T16:23:53.040Z,2.47
2018-09-11T16:28:45.662Z,2.50
2018-09-11T16:33:38.334Z,2.67
2018-09-11T16:38:31.130Z,2.77
2018-09-11T16:43:23.827Z,2.67
2018-09-11T16:48:16.436Z,2.70
2018-09-11T16:53:09.095Z,2.70
2018-09-11T16:58:01.639Z,2.60
2018-09-11T17:02:54.200Z,3.00
2018-09-11T17:07:46.794Z,2.80
2018-09-11T17:12:39.379Z,3.00
2018-09-11T17:17:32.128Z,3.27
2018-09-11T17:22:24.949Z,2.80
2018-09-11T17:27:17.961Z,2.97
2018-09-11T17:32:10.619Z,3.30
2018-09-11T17:37:03.276Z,3.20
2018-09-11T17:41:55.969Z,2.90
2018-09-11T17:46:48.802Z,3.40
2018-09-11T17:51:41.559Z,3.13
2018-09-11T17:56:34.243Z,3.40
2018-09-11T18:01:26.981Z,3.40
2018-09-11T18:06:19.812Z,3.17
2018-09-11T18:11:12.406Z,3.70
2018-09-11T18:16:05.118Z,2.80
2018-09-11T18:20:57.892Z,3.00
2018-09-11T18:25:50.787Z,3.57
2018-09-11T18:30:43.638Z,3.27
2018-09-11T18:35:36.383Z,3.00
2018-09-11T18:40:29.217Z,3.03
2018-09-11T18:45:22.219Z,3.30
2018-09-11T18:50:17.077Z,3.50
2018-09-11T18:55:09.886Z,3.50
2018-09-11T19:00:02.682Z,3.17
2018-09-11T19:04:55.452Z,3.43
2018-09-11T19:09:48.180Z,4.03
2018-09-11T19:14:41.042Z,3.37
2018-09-11T19:19:33.863Z,3.53
2018-09-11T19:24:26.468Z,3.27
2018-09-11T19:29:19.059Z,3.47
2018-09-11T19:34:11.874Z,3.23
2018-09-11T19:39:06.086Z,3.03
2018-09-11T19:43:58.712Z,2.97
2018-09-11T19:48:51.256Z,3.03
2018-09-11T19:53:43.835Z,3.00
2018-09-11T19:58:36.567Z,3.20
2018-09-11T20:03:29.433Z,2.83
2018-09-11T20:08:22.086Z,3.23
2018-09-11T20:13:14.772Z,3.40
2018-09-11T20:18:07.534Z,2.70
2018-09-11T20:23:00.168Z,3.10
2018-09-11T20:27:52.812Z,2.87
2018-09-11T20:32:45.594Z,2.97
2018-09-11T20:37:38.363Z,2.90
2018-09-11T20:42:30.931Z,3.50
2018-09-11T20:47:23.554Z,3.20
2018-09-11T20:52:16.100Z,3.27
2018-09-11T20:57:08.973Z,3.07
2018-09-11T21:02:01.686Z,3.13
2018-09-11T21:06:54.287Z,3.47
2018-09-11T21:11:46.915Z,3.10
2018-09-11T21:16:39.510Z,3.10
2018-09-11T21:21:32.245Z,3.10
2018-09-11T21:26:24.837Z,3.17
2018-09-11T21:31:17.356Z,3.30
2018-09-11T21:36:09.832Z,3.00
2018-09-11T21:41:02.446Z,2.90
2018-09-11T21:50:54.227Z,3.10
2018-09-11T21:55:46.794Z,2.90
2018-09-11T22:00:44.064Z,3.07
2018-09-11T22:05:36.632Z,2.73
2018-09-11T22:10:29.374Z,2.77
2018-09-11T22:15:21.982Z,3.00
2018-09-11T22:20:14.551Z,3.20
2018-09-11T22:25:07.160Z,2.70
2018-09-11T22:29:59.764Z,2.87
2018-09-11T22:34:52.434Z,2.93
2018-09-11T22:39:44.990Z,2.60
2018-09-11T22:44:37.626Z,2.40
2018-09-11T22:49:30.215Z,2.73
2018-09-11T22:54:22.773Z,2.27
2018-09-11T22:59:15.364Z,2.90
2018-09-11T23:04:07.952Z,2.50
2018-09-11T23:09:00.516Z,2.50
2018-09-11T23:13:53.224Z,2.60
2018-09-11T23:18:45.821Z,5.67
2018-09-11T23:23:38.405Z,3.50
2018-09-11T23:28:30.988Z,2.70
2018-09-11T23:33:23.585Z,2.60
2018-09-11T23:38:16.189Z,3.07
2018-09-11T23:43:08.891Z,3.03
2018-09-11T23:48:01.516Z,2.90
2018-09-11T23:52:54.099Z,4.07
2018-09-11T23:57:46.630Z,3.10
